Terminal Aerodrome Forecast
Issued by NWS

Home | Current Version | Previous Version | Text Only | Print | Product List | Glossary On
Versions: 1 2 3 4 5 6 7 8 9 10 11 12
000
FTUS45 KABQ 231737
TAFGUP
TAF
KGUP 231737Z 2318/2418 24006KT P6SM FEW150
     FM232100 30011KT P6SM VCSH SCT100 SCT150
      TEMPO 2321/2323 VRB20G30KT 6SM -TSRA BKN090CB
     FM240300 VRB05KT P6SM BKN100
     FM241700 29007KT P6SM FEW150=

USA.gov is the U.S. government's official web portal to all federal, state and local government web resources and services.